sensor_id;sensor_type;location;lat;lon;timestamp;pressure;altitude;pressure_sealevel;temperature;humidity
59103;BME280;43999;51.660;5.616;2023-05-22T00:02:24;101263.56;;;16.94;100.00
59103;BME280;43999;51.660;5.616;2023-05-22T00:04:52;101262.72;;;16.94;100.00
59103;BME280;43999;51.660;5.616;2023-05-22T00:07:20;101268.97;;;16.93;100.00
59103;BME280;43999;51.660;5.616;2023-05-22T00:09:48;101270.06;;;16.90;100.00
59103;BME280;43999;51.660;5.616;2023-05-22T00:12:16;101272.06;;;16.87;100.00
59103;BME280;43999;51.660;5.616;2023-05-22T00:14:43;101276.84;;;16.81;100.00
59103;BME280;43999;51.660;5.616;2023-05-22T00:17:11;101276.94;;;16.80;100.00
59103;BME280;43999;51.660;5.616;2023-05-22T00:19:41;101278.75;;;16.79;100.00
59103;BME280;43999;51.660;5.616;2023-05-22T00:22:08;101277.91;;;16.79;100.00
59103;BME280;43999;51.660;5.616;2023-05-22T00:24:36;101283.31;;;16.77;100.00
59103;BME280;43999;51.660;5.616;2023-05-22T00:27:04;101279.00;;;16.76;100.00
59103;BME280;43999;51.660;5.616;2023-05-22T00:29:32;101272.09;;;16.74;100.00
59103;BME280;43999;51.660;5.616;2023-05-22T00:31:59;101277.63;;;16.71;100.00
59103;BME280;43999;51.660;5.616;2023-05-22T00:34:27;101269.19;;;16.65;100.00
59103;BME280;43999;51.660;5.616;2023-05-22T00:36:54;101270.34;;;16.61;100.00
59103;BME280;43999;51.660;5.616;2023-05-22T00:39:22;101270.56;;;16.58;100.00
59103;BME280;43999;51.660;5.616;2023-05-22T00:41:50;101263.81;;;16.54;100.00
59103;BME280;43999;51.660;5.616;2023-05-22T00:44:17;101257.19;;;16.48;100.00
59103;BME280;43999;51.660;5.616;2023-05-22T00:46:45;101252.84;;;16.47;100.00
59103;BME280;43999;51.660;5.616;2023-05-22T00:49:12;101255.47;;;16.47;100.00
59103;BME280;43999;51.660;5.616;2023-05-22T00:51:39;101258.34;;;16.44;100.00
59103;BME280;43999;51.660;5.616;2023-05-22T00:54:07;101254.88;;;16.44;100.00
59103;BME280;43999;51.660;5.616;2023-05-22T00:56:37;101255.69;;;16.44;100.00
59103;BME280;43999;51.660;5.616;2023-05-22T00:59:04;101253.28;;;16.41;100.00
59103;BME280;43999;51.660;5.616;2023-05-22T01:01:33;101246.50;;;16.37;100.00
59103;BME280;43999;51.660;5.616;2023-05-22T01:04:04;101252.88;;;16.35;100.00
59103;BME280;43999;51.660;5.616;2023-05-22T01:06:34;101253.94;;;16.32;100.00
59103;BME280;43999;51.660;5.616;2023-05-22T01:09:01;101256.19;;;16.25;100.00
59103;BME280;43999;51.660;5.616;2023-05-22T01:11:39;101248.13;;;16.27;100.00
59103;BME280;43999;51.660;5.616;2023-05-22T01:14:51;101244.75;;;16.25;100.00
59103;BME280;43999;51.660;5.616;2023-05-22T01:20:42;101243.50;;;16.18;100.00
59103;BME280;43999;51.660;5.616;2023-05-22T01:31:16;101239.94;;;16.06;100.00
59103;BME280;43999;51.660;5.616;2023-05-22T01:33:51;101244.59;;;16.02;100.00
59103;BME280;43999;51.660;5.616;2023-05-22T01:36:28;101232.75;;;15.95;100.00
59103;BME280;43999;51.660;5.616;2023-05-22T01:38:59;101239.53;;;15.99;100.00
59103;BME280;43999;51.660;5.616;2023-05-22T01:41:31;101236.13;;;15.97;100.00
59103;BME280;43999;51.660;5.616;2023-05-22T01:44:01;101243.44;;;15.93;100.00
59103;BME280;43999;51.660;5.616;2023-05-22T01:46:29;101241.00;;;15.90;100.00
59103;BME280;43999;51.660;5.616;2023-05-22T01:48:58;101235.81;;;15.89;100.00
59103;BME280;43999;51.660;5.616;2023-05-22T01:54:42;101236.66;;;15.76;100.00
59103;BME280;43999;51.660;5.616;2023-05-22T01:57:38;101229.03;;;15.72;100.00
59103;BME280;43999;51.660;5.616;2023-05-22T02:00:15;101237.28;;;15.67;100.00
59103;BME280;43999;51.660;5.616;2023-05-22T02:02:59;101240.34;;;15.61;100.00
59103;BME280;43999;51.660;5.616;2023-05-22T02:05:37;101235.38;;;15.56;100.00
59103;BME280;43999;51.660;5.616;2023-05-22T02:08:06;101233.91;;;15.52;100.00
59103;BME280;43999;51.660;5.616;2023-05-22T02:10:38;101238.66;;;15.47;100.00
59103;BME280;43999;51.660;5.616;2023-05-22T02:13:09;101232.13;;;15.40;100.00
59103;BME280;43999;51.660;5.616;2023-05-22T02:15:37;101241.19;;;15.36;100.00
59103;BME280;43999;51.660;5.616;2023-05-22T02:18:09;101236.31;;;15.30;100.00
59103;BME280;43999;51.660;5.616;2023-05-22T02:20:42;101231.34;;;15.25;100.00
59103;BME280;43999;51.660;5.616;2023-05-22T02:23:09;101234.28;;;15.20;100.00
59103;BME280;43999;51.660;5.616;2023-05-22T02:25:37;101236.31;;;15.17;100.00
59103;BME280;43999;51.660;5.616;2023-05-22T02:28:04;101225.09;;;15.13;100.00
59103;BME280;43999;51.660;5.616;2023-05-22T02:30:32;101219.28;;;15.08;100.00
59103;BME280;43999;51.660;5.616;2023-05-22T02:32:59;101225.28;;;15.10;100.00
59103;BME280;43999;51.660;5.616;2023-05-22T02:35:28;101226.25;;;15.09;100.00
59103;BME280;43999;51.660;5.616;2023-05-22T02:37:55;101222.97;;;15.05;100.00
59103;BME280;43999;51.660;5.616;2023-05-22T02:40:23;101224.03;;;15.03;100.00
59103;BME280;43999;51.660;5.616;2023-05-22T02:42:51;101212.09;;;14.97;100.00
59103;BME280;43999;51.660;5.616;2023-05-22T02:45:18;101214.09;;;14.94;100.00
59103;BME280;43999;51.660;5.616;2023-05-22T02:47:45;101209.94;;;14.90;100.00
59103;BME280;43999;51.660;5.616;2023-05-22T02:50:13;101214.59;;;14.86;100.00
59103;BME280;43999;51.660;5.616;2023-05-22T02:52:40;101216.47;;;14.84;100.00
59103;BME280;43999;51.660;5.616;2023-05-22T02:55:08;101211.38;;;14.81;100.00
59103;BME280;43999;51.660;5.616;2023-05-22T02:57:36;101196.84;;;14.75;100.00
59103;BME280;43999;51.660;5.616;2023-05-22T03:00:04;101214.53;;;14.73;100.00
59103;BME280;43999;51.660;5.616;2023-05-22T03:02:37;101217.38;;;14.70;100.00
59103;BME280;43999;51.660;5.616;2023-05-22T03:05:05;101211.47;;;14.66;100.00
59103;BME280;43999;51.660;5.616;2023-05-22T03:07:34;101205.56;;;14.63;100.00
59103;BME280;43999;51.660;5.616;2023-05-22T03:10:01;101207.41;;;14.61;100.00
59103;BME280;43999;51.660;5.616;2023-05-22T03:12:28;101210.13;;;14.59;100.00
59103;BME280;43999;51.660;5.616;2023-05-22T03:14:56;101206.00;;;14.55;100.00
59103;BME280;43999;51.660;5.616;2023-05-22T03:17:23;101203.69;;;14.50;100.00
59103;BME280;43999;51.660;5.616;2023-05-22T03:19:51;101211.69;;;14.49;100.00
59103;BME280;43999;51.660;5.616;2023-05-22T03:22:19;101199.72;;;14.43;100.00
59103;BME280;43999;51.660;5.616;2023-05-22T03:24:47;101198.69;;;14.46;100.00
59103;BME280;43999;51.660;5.616;2023-05-22T03:27:14;101194.47;;;14.43;100.00
59103;BME280;43999;51.660;5.616;2023-05-22T03:29:45;101195.44;;;14.42;100.00
59103;BME280;43999;51.660;5.616;2023-05-22T03:32:13;101192.88;;;14.41;100.00
59103;BME280;43999;51.660;5.616;2023-05-22T03:34:41;101199.19;;;14.38;100.00
59103;BME280;43999;51.660;5.616;2023-05-22T03:37:10;101193.19;;;14.36;100.00
59103;BME280;43999;51.660;5.616;2023-05-22T03:39:37;101197.38;;;14.39;100.00
59103;BME280;43999;51.660;5.616;2023-05-22T03:42:25;101197.38;;;14.39;100.00
59103;BME280;43999;51.660;5.616;2023-05-22T03:44:52;101195.53;;;14.41;100.00
59103;BME280;43999;51.660;5.616;2023-05-22T03:47:20;101191.00;;;14.43;100.00
59103;BME280;43999;51.660;5.616;2023-05-22T03:49:47;101198.91;;;14.43;100.00
59103;BME280;43999;51.660;5.616;2023-05-22T03:52:15;101201.53;;;14.43;100.00
59103;BME280;43999;51.660;5.616;2023-05-22T03:54:42;101199.63;;;14.45;100.00
59103;BME280;43999;51.660;5.616;2023-05-22T03:57:09;101193.44;;;14.46;100.00
59103;BME280;43999;51.660;5.616;2023-05-22T03:59:37;101188.06;;;14.47;100.00
59103;BME280;43999;51.660;5.616;2023-05-22T04:02:06;101195.13;;;14.47;100.00
59103;BME280;43999;51.660;5.616;2023-05-22T04:04:34;101195.22;;;14.45;100.00
59103;BME280;43999;51.660;5.616;2023-05-22T04:07:04;101202.16;;;14.46;100.00
59103;BME280;43999;51.660;5.616;2023-05-22T04:09:34;101198.69;;;14.46;100.00
59103;BME280;43999;51.660;5.616;2023-05-22T04:12:02;101195.44;;;14.42;100.00
59103;BME280;43999;51.660;5.616;2023-05-22T04:14:29;101194.47;;;14.43;100.00
59103;BME280;43999;51.660;5.616;2023-05-22T04:16:58;101206.16;;;14.39;100.00
59103;BME280;43999;51.660;5.616;2023-05-22T04:19:27;101201.63;;;14.41;100.00
59103;BME280;43999;51.660;5.616;2023-05-22T04:21:57;101210.38;;;14.42;100.00
59103;BME280;43999;51.660;5.616;2023-05-22T04:24:25;101208.72;;;14.41;100.00
59103;BME280;43999;51.660;5.616;2023-05-22T04:26:53;101207.84;;;14.40;100.00
59103;BME280;43999;51.660;5.616;2023-05-22T04:29:20;101200.78;;;14.41;100.00
59103;BME280;43999;51.660;5.616;2023-05-22T04:31:48;101211.16;;;14.44;100.00
59103;BME280;43999;51.660;5.616;2023-05-22T04:34:16;101211.16;;;14.44;100.00
59103;BME280;43999;51.660;5.616;2023-05-22T04:36:44;101211.16;;;14.44;100.00
59103;BME280;43999;51.660;5.616;2023-05-22T04:39:13;101210.28;;;14.43;100.00
59103;BME280;43999;51.660;5.616;2023-05-22T04:41:41;101210.19;;;14.45;100.00
59103;BME280;43999;51.660;5.616;2023-05-22T04:44:09;101218.00;;;14.46;100.00
59103;BME280;43999;51.660;5.616;2023-05-22T04:46:36;101218.75;;;14.48;100.00
59103;BME280;43999;51.660;5.616;2023-05-22T04:49:04;101218.97;;;14.45;100.00
59103;BME280;43999;51.660;5.616;2023-05-22T04:51:31;101221.59;;;14.45;100.00
59103;BME280;43999;51.660;5.616;2023-05-22T04:54:00;101221.59;;;14.45;100.00
59103;BME280;43999;51.660;5.616;2023-05-22T04:56:28;101221.59;;;14.45;100.00
59103;BME280;43999;51.660;5.616;2023-05-22T04:59:03;101226.75;;;14.47;100.00
59103;BME280;43999;51.660;5.616;2023-05-22T05:01:36;101225.91;;;14.46;100.00
59103;BME280;43999;51.660;5.616;2023-05-22T05:04:04;101229.59;;;14.44;100.00
59103;BME280;43999;51.660;5.616;2023-05-22T05:06:32;101226.19;;;14.42;100.00
59103;BME280;43999;51.660;5.616;2023-05-22T05:09:02;101229.69;;;14.42;100.00
59103;BME280;43999;51.660;5.616;2023-05-22T05:11:30;101223.75;;;14.39;100.00
59103;BME280;43999;51.660;5.616;2023-05-22T05:13:57;101234.19;;;14.40;100.00
59103;BME280;43999;51.660;5.616;2023-05-22T05:16:26;101236.00;;;14.40;100.00
59103;BME280;43999;51.660;5.616;2023-05-22T05:18:54;101231.66;;;14.39;100.00
59103;BME280;43999;51.660;5.616;2023-05-22T05:21:21;101228.19;;;14.38;100.00
59103;BME280;43999;51.660;5.616;2023-05-22T05:23:49;101237.81;;;14.39;100.00
59103;BME280;43999;51.660;5.616;2023-05-22T05:26:18;101246.44;;;14.41;100.00
59103;BME280;43999;51.660;5.616;2023-05-22T05:29:05;101242.78;;;14.44;100.00
59103;BME280;43999;51.660;5.616;2023-05-22T05:31:39;101239.28;;;14.43;100.00
59103;BME280;43999;51.660;5.616;2023-05-22T05:34:16;101244.56;;;14.43;100.00
59103;BME280;43999;51.660;5.616;2023-05-22T05:37:09;101236.66;;;14.43;100.00
59103;BME280;43999;51.660;5.616;2023-05-22T05:39:37;101239.94;;;14.47;100.00
59103;BME280;43999;51.660;5.616;2023-05-22T05:42:07;101246.06;;;14.47;100.00
59103;BME280;43999;51.660;5.616;2023-05-22T05:44:35;101239.19;;;14.45;100.00
59103;BME280;43999;51.660;5.616;2023-05-22T05:47:05;101245.31;;;14.45;100.00
59103;BME280;43999;51.660;5.616;2023-05-22T05:49:33;101252.38;;;14.45;100.00
59103;BME280;43999;51.660;5.616;2023-05-22T05:52:02;101258.19;;;14.50;100.00
59103;BME280;43999;51.660;5.616;2023-05-22T05:54:30;101261.78;;;14.49;100.00
59103;BME280;43999;51.660;5.616;2023-05-22T05:57:03;101260.72;;;14.51;100.00
59103;BME280;43999;51.660;5.616;2023-05-22T05:59:30;101254.50;;;14.52;100.00
59103;BME280;43999;51.660;5.616;2023-05-22T06:02:18;101263.34;;;14.51;100.00
59103;BME280;43999;51.660;5.616;2023-05-22T06:04:50;101259.97;;;14.49;100.00
59103;BME280;43999;51.660;5.616;2023-05-22T06:07:19;101255.44;;;14.51;100.00
59103;BME280;43999;51.660;5.616;2023-05-22T06:09:51;101264.88;;;14.56;100.00
59103;BME280;43999;51.660;5.616;2023-05-22T06:12:33;101256.84;;;14.57;100.00
59103;BME280;43999;51.660;5.616;2023-05-22T06:15:00;101259.31;;;14.60;100.00
59103;BME280;43999;51.660;5.616;2023-05-22T06:17:28;101262.50;;;14.65;100.00
59103;BME280;43999;51.660;5.616;2023-05-22T06:19:58;101270.03;;;14.72;100.00
59103;BME280;43999;51.660;5.616;2023-05-22T06:22:26;101262.00;;;14.73;100.00
59103;BME280;43999;51.660;5.616;2023-05-22T06:24:55;101266.50;;;14.85;100.00
59103;BME280;43999;51.660;5.616;2023-05-22T06:27:25;101265.25;;;14.91;100.00
59103;BME280;43999;51.660;5.616;2023-05-22T06:29:56;101266.66;;;14.97;100.00
59103;BME280;43999;51.660;5.616;2023-05-22T06:32:27;101267.19;;;15.02;100.00
59103;BME280;43999;51.660;5.616;2023-05-22T06:34:55;101272.06;;;15.08;100.00
59103;BME280;43999;51.660;5.616;2023-05-22T06:37:25;101268.28;;;15.12;100.00
59103;BME280;43999;51.660;5.616;2023-05-22T06:39:52;101265.25;;;15.18;100.00
59103;BME280;43999;51.660;5.616;2023-05-22T06:42:26;101270.75;;;15.28;100.00
59103;BME280;43999;51.660;5.616;2023-05-22T06:45:19;101277.22;;;15.37;100.00
59103;BME280;43999;51.660;5.616;2023-05-22T06:48:12;101279.34;;;15.45;100.00
59103;BME280;43999;51.660;5.616;2023-05-22T06:50:53;101285.03;;;15.51;100.00
59103;BME280;43999;51.660;5.616;2023-05-22T06:53:20;101286.31;;;15.58;100.00
59103;BME280;43999;51.660;5.616;2023-05-22T06:55:50;101284.09;;;15.65;100.00
59103;BME280;43999;51.660;5.616;2023-05-22T06:58:27;101288.75;;;15.74;100.00
59103;BME280;43999;51.660;5.616;2023-05-22T07:00:54;101292.81;;;15.80;100.00
59103;BME280;43999;51.660;5.616;2023-05-22T07:03:33;101293.44;;;15.84;100.00
59103;BME280;43999;51.660;5.616;2023-05-22T07:06:28;101301.16;;;15.87;100.00
59103;BME280;43999;51.660;5.616;2023-05-22T07:08:59;101292.06;;;15.91;100.00
59103;BME280;43999;51.660;5.616;2023-05-22T07:11:28;101299.34;;;16.00;100.00
59103;BME280;43999;51.660;5.616;2023-05-22T07:13:55;101297.75;;;16.10;100.00
59103;BME280;43999;51.660;5.616;2023-05-22T07:16:24;101302.41;;;16.20;100.00
59103;BME280;43999;51.660;5.616;2023-05-22T07:18:52;101295.41;;;16.31;100.00
59103;BME280;43999;51.660;5.616;2023-05-22T07:21:19;101301.81;;;16.40;100.00
59103;BME280;43999;51.660;5.616;2023-05-22T07:23:51;101303.69;;;16.51;100.00
59103;BME280;43999;51.660;5.616;2023-05-22T07:26:19;101308.97;;;16.64;100.00
59103;BME280;43999;51.660;5.616;2023-05-22T07:28:57;101312.41;;;16.77;100.00
59103;BME280;43999;51.660;5.616;2023-05-22T07:31:26;101317.81;;;16.89;100.00
59103;BME280;43999;51.660;5.616;2023-05-22T07:33:54;101309.81;;;17.01;100.00
59103;BME280;43999;51.660;5.616;2023-05-22T07:36:22;101318.19;;;17.19;100.00
59103;BME280;43999;51.660;5.616;2023-05-22T07:38:50;101316.19;;;17.34;100.00
59103;BME280;43999;51.660;5.616;2023-05-22T07:41:18;101315.06;;;17.50;100.00
59103;BME280;43999;51.660;5.616;2023-05-22T07:43:45;101313.88;;;17.65;100.00
59103;BME280;43999;51.660;5.616;2023-05-22T07:46:16;101317.88;;;17.82;100.00
59103;BME280;43999;51.660;5.616;2023-05-22T07:48:53;101313.50;;;17.94;100.00
59103;BME280;43999;51.660;5.616;2023-05-22T07:51:20;101314.09;;;17.98;100.00
59103;BME280;43999;51.660;5.616;2023-05-22T07:53:50;101317.72;;;18.08;100.00
59103;BME280;43999;51.660;5.616;2023-05-22T07:56:17;101322.44;;;18.16;100.00
59103;BME280;43999;51.660;5.616;2023-05-22T07:58:47;101314.22;;;18.30;100.00
59103;BME280;43999;51.660;5.616;2023-05-22T08:01:17;101330.25;;;18.40;100.00
59103;BME280;43999;51.660;5.616;2023-05-22T08:03:44;101331.09;;;18.52;100.00
59103;BME280;43999;51.660;5.616;2023-05-22T08:06:12;101321.41;;;18.62;100.00
59103;BME280;43999;51.660;5.616;2023-05-22T08:08:42;101315.59;;;18.79;100.00
59103;BME280;43999;51.660;5.616;2023-05-22T08:11:09;101314.44;;;19.05;100.00
59103;BME280;43999;51.660;5.616;2023-05-22T08:13:37;101329.41;;;19.38;100.00
59103;BME280;43999;51.660;5.616;2023-05-22T08:16:05;101319.00;;;19.67;100.00
59103;BME280;43999;51.660;5.616;2023-05-22T08:18:34;101322.94;;;19.94;100.00
59103;BME280;43999;51.660;5.616;2023-05-22T08:21:01;101324.56;;;20.16;100.00
59103;BME280;43999;51.660;5.616;2023-05-22T08:23:28;101317.50;;;20.36;100.00
59103;BME280;43999;51.660;5.616;2023-05-22T08:25:57;101309.59;;;20.56;100.00
59103;BME280;43999;51.660;5.616;2023-05-22T08:28:24;101316.66;;;20.76;100.00
59103;BME280;43999;51.660;5.616;2023-05-22T08:30:52;101318.53;;;21.05;100.00
59103;BME280;43999;51.660;5.616;2023-05-22T08:33:22;101317.38;;;21.37;100.00
59103;BME280;43999;51.660;5.616;2023-05-22T08:35:50;101312.59;;;21.70;100.00
59103;BME280;43999;51.660;5.616;2023-05-22T08:38:18;101304.63;;;21.98;100.00
59103;BME280;43999;51.660;5.616;2023-05-22T08:40:47;101314.81;;;22.22;100.00
59103;BME280;43999;51.660;5.616;2023-05-22T08:43:19;101319.75;;;22.45;100.00
59103;BME280;43999;51.660;5.616;2023-05-22T08:46:01;101318.38;;;22.68;100.00
59103;BME280;43999;51.660;5.616;2023-05-22T08:48:31;101315.66;;;22.96;100.00
59103;BME280;43999;51.660;5.616;2023-05-22T08:51:07;101315.88;;;23.03;100.00
59103;BME280;43999;51.660;5.616;2023-05-22T08:53:35;101318.81;;;23.09;100.00
59103;BME280;43999;51.660;5.616;2023-05-22T08:56:07;101323.06;;;23.20;100.00
59103;BME280;43999;51.660;5.616;2023-05-22T08:58:36;101322.88;;;23.14;100.00
59103;BME280;43999;51.660;5.616;2023-05-22T09:01:04;101317.97;;;23.09;100.00
59103;BME280;43999;51.660;5.616;2023-05-22T09:03:35;101319.56;;;23.20;100.00
59103;BME280;43999;51.660;5.616;2023-05-22T09:06:03;101335.63;;;23.20;100.00
59103;BME280;43999;51.660;5.616;2023-05-22T09:08:36;101326.31;;;23.24;100.00
59103;BME280;43999;51.660;5.616;2023-05-22T09:11:05;101326.22;;;23.34;100.00
59103;BME280;43999;51.660;5.616;2023-05-22T09:13:34;101318.16;;;23.52;100.00
59103;BME280;43999;51.660;5.616;2023-05-22T09:16:09;101329.31;;;23.73;100.00
59103;BME280;43999;51.660;5.616;2023-05-22T09:18:39;101322.75;;;23.86;97.72
59103;BME280;43999;51.660;5.616;2023-05-22T09:21:12;101320.00;;;24.04;95.91
59103;BME280;43999;51.660;5.616;2023-05-22T09:23:59;101319.72;;;24.15;96.68
59103;BME280;43999;51.660;5.616;2023-05-22T09:26:29;101322.47;;;24.31;96.25
59103;BME280;43999;51.660;5.616;2023-05-22T09:28:58;101324.22;;;24.49;93.07
59103;BME280;43999;51.660;5.616;2023-05-22T09:31:28;101320.88;;;24.47;93.57
59103;BME280;43999;51.660;5.616;2023-05-22T09:33:56;101315.69;;;24.53;91.45
59103;BME280;43999;51.660;5.616;2023-05-22T09:36:30;101318.94;;;24.65;91.53
59103;BME280;43999;51.660;5.616;2023-05-22T09:39:00;101312.25;;;24.78;91.34
59103;BME280;43999;51.660;5.616;2023-05-22T09:41:30;101315.97;;;24.93;91.17
59103;BME280;43999;51.660;5.616;2023-05-22T09:44:15;101310.63;;;25.01;90.40
59103;BME280;43999;51.660;5.616;2023-05-22T09:46:46;101310.63;;;25.18;90.50
59103;BME280;43999;51.660;5.616;2023-05-22T09:49:14;101308.66;;;25.36;88.10
59103;BME280;43999;51.660;5.616;2023-05-22T09:51:44;101304.28;;;25.44;87.87
59103;BME280;43999;51.660;5.616;2023-05-22T09:54:16;101298.56;;;25.55;86.01
59103;BME280;43999;51.660;5.616;2023-05-22T09:56:49;101310.94;;;25.72;84.40
59103;BME280;43999;51.660;5.616;2023-05-22T09:59:27;101311.44;;;25.84;83.75
59103;BME280;43999;51.660;5.616;2023-05-22T10:01:59;101307.53;;;25.95;83.41
59103;BME280;43999;51.660;5.616;2023-05-22T10:04:29;101310.22;;;26.03;85.39
59103;BME280;43999;51.660;5.616;2023-05-22T10:07:01;101308.47;;;26.19;83.03
59103;BME280;43999;51.660;5.616;2023-05-22T10:09:31;101308.91;;;26.39;82.08
59103;BME280;43999;51.660;5.616;2023-05-22T10:12:06;101311.19;;;26.50;80.24
59103;BME280;43999;51.660;5.616;2023-05-22T10:14:36;101308.09;;;26.61;79.11
59103;BME280;43999;51.660;5.616;2023-05-22T10:17:04;101306.44;;;26.60;78.24
59103;BME280;43999;51.660;5.616;2023-05-22T10:19:35;101303.81;;;26.75;76.67
59103;BME280;43999;51.660;5.616;2023-05-22T10:22:07;101300.94;;;26.85;75.98
59103;BME280;43999;51.660;5.616;2023-05-22T10:24:38;101294.34;;;26.88;75.97
59103;BME280;43999;51.660;5.616;2023-05-22T10:27:07;101300.69;;;26.95;76.36
59103;BME280;43999;51.660;5.616;2023-05-22T10:29:41;101298.41;;;27.07;76.48
59103;BME280;43999;51.660;5.616;2023-05-22T10:32:41;101294.31;;;27.11;75.98
59103;BME280;43999;51.660;5.616;2023-05-22T10:41:56;101289.63;;;27.36;74.00
59103;BME280;43999;51.660;5.616;2023-05-22T10:44:24;101291.41;;;27.44;73.23
59103;BME280;43999;51.660;5.616;2023-05-22T10:46:51;101294.84;;;27.29;72.44
59103;BME280;43999;51.660;5.616;2023-05-22T10:49:22;101284.88;;;27.38;72.34
59103;BME280;43999;51.660;5.616;2023-05-22T10:51:55;101284.19;;;27.59;72.09
59103;BME280;43999;51.660;5.616;2023-05-22T10:54:43;101289.00;;;27.79;71.67
59103;BME280;43999;51.660;5.616;2023-05-22T10:57:15;101287.88;;;27.88;72.33
59103;BME280;43999;51.660;5.616;2023-05-22T10:59:49;101286.59;;;27.99;70.57
59103;BME280;43999;51.660;5.616;2023-05-22T11:02:25;101288.38;;;28.06;67.21
59103;BME280;43999;51.660;5.616;2023-05-22T11:11:10;101285.22;;;28.39;66.75
59103;BME280;43999;51.660;5.616;2023-05-22T11:13:40;101290.91;;;28.44;67.96
59103;BME280;43999;51.660;5.616;2023-05-22T11:16:09;101288.03;;;28.46;66.32
59103;BME280;43999;51.660;5.616;2023-05-22T11:18:37;101277.16;;;28.39;67.17
59103;BME280;43999;51.660;5.616;2023-05-22T11:21:04;101280.53;;;28.12;66.95
59103;BME280;43999;51.660;5.616;2023-05-22T11:23:36;101272.16;;;27.91;67.17
59103;BME280;43999;51.660;5.616;2023-05-22T11:26:20;101267.19;;;27.73;69.56
59103;BME280;43999;51.660;5.616;2023-05-22T11:28:53;101281.31;;;27.61;66.81
59103;BME280;43999;51.660;5.616;2023-05-22T11:31:21;101274.16;;;27.53;68.53
59103;BME280;43999;51.660;5.616;2023-05-22T11:33:50;101272.66;;;27.50;70.63
59103;BME280;43999;51.660;5.616;2023-05-22T11:36:17;101264.53;;;27.35;70.50
59103;BME280;43999;51.660;5.616;2023-05-22T11:38:45;101271.47;;;27.30;69.57
59103;BME280;43999;51.660;5.616;2023-05-22T11:41:14;101273.59;;;27.19;71.57
59103;BME280;43999;51.660;5.616;2023-05-22T11:43:42;101277.25;;;27.04;72.08
59103;BME280;43999;51.660;5.616;2023-05-22T11:46:10;101270.66;;;27.06;73.16
59103;BME280;43999;51.660;5.616;2023-05-22T11:48:41;101266.53;;;27.18;72.44
59103;BME280;43999;51.660;5.616;2023-05-22T11:51:09;101261.03;;;27.35;72.91
59103;BME280;43999;51.660;5.616;2023-05-22T11:53:36;101264.41;;;27.29;71.09
59103;BME280;43999;51.660;5.616;2023-05-22T11:56:06;101267.69;;;27.01;70.43
59103;BME280;43999;51.660;5.616;2023-05-22T11:58:33;101264.03;;;26.71;71.78
59103;BME280;43999;51.660;5.616;2023-05-22T12:01:02;101262.22;;;26.71;73.75
59103;BME280;43999;51.660;5.616;2023-05-22T12:03:31;101259.88;;;26.68;73.59
59103;BME280;43999;51.660;5.616;2023-05-22T12:06:00;101262.75;;;26.58;73.59
59103;BME280;43999;51.660;5.616;2023-05-22T12:08:30;101261.09;;;26.57;74.78
59103;BME280;43999;51.660;5.616;2023-05-22T12:10:57;101250.19;;;26.51;74.62
59103;BME280;43999;51.660;5.616;2023-05-22T12:13:29;101255.16;;;26.39;74.46
59103;BME280;43999;51.660;5.616;2023-05-22T12:15:58;101257.72;;;26.32;75.52
59103;BME280;43999;51.660;5.616;2023-05-22T12:18:35;101250.50;;;26.33;76.78
59103;BME280;43999;51.660;5.616;2023-05-22T12:21:06;101258.31;;;26.42;77.81
59103;BME280;43999;51.660;5.616;2023-05-22T12:23:34;101246.75;;;26.42;76.34
59103;BME280;43999;51.660;5.616;2023-05-22T12:26:08;101259.78;;;26.53;75.22
59103;BME280;43999;51.660;5.616;2023-05-22T12:28:37;101252.88;;;26.51;74.90
59103;BME280;43999;51.660;5.616;2023-05-22T12:31:05;101252.88;;;26.51;75.51
59103;BME280;43999;51.660;5.616;2023-05-22T12:33:32;101253.91;;;26.50;75.49
59103;BME280;43999;51.660;5.616;2023-05-22T12:36:06;101250.56;;;26.47;75.09
59103;BME280;43999;51.660;5.616;2023-05-22T12:38:37;101252.78;;;26.44;73.98
59103;BME280;43999;51.660;5.616;2023-05-22T12:41:07;101238.88;;;26.40;74.66
59103;BME280;43999;51.660;5.616;2023-05-22T12:43:35;101240.03;;;26.38;75.68
59103;BME280;43999;51.660;5.616;2023-05-22T12:46:02;101241.97;;;26.52;75.70
59103;BME280;43999;51.660;5.616;2023-05-22T12:48:30;101250.47;;;26.64;75.21
59103;BME280;43999;51.660;5.616;2023-05-22T12:50:57;101241.81;;;26.77;73.08
59103;BME280;43999;51.660;5.616;2023-05-22T12:53:24;101240.09;;;26.84;73.61
59103;BME280;43999;51.660;5.616;2023-05-22T12:55:52;101245.53;;;26.99;73.13
59103;BME280;43999;51.660;5.616;2023-05-22T12:58:19;101250.69;;;27.24;72.19
59103;BME280;43999;51.660;5.616;2023-05-22T13:00:46;101243.13;;;27.42;72.19
59103;BME280;43999;51.660;5.616;2023-05-22T13:03:14;101239.13;;;27.38;70.91
59103;BME280;43999;51.660;5.616;2023-05-22T13:05:42;101242.28;;;27.42;70.43
59103;BME280;43999;51.660;5.616;2023-05-22T13:08:09;101237.34;;;27.30;70.80
59103;BME280;43999;51.660;5.616;2023-05-22T13:10:36;101236.63;;;27.36;72.52
59103;BME280;43999;51.660;5.616;2023-05-22T13:13:04;101231.72;;;27.40;70.08
59103;BME280;43999;51.660;5.616;2023-05-22T13:15:32;101239.69;;;27.33;69.45
59103;BME280;43999;51.660;5.616;2023-05-22T13:18:00;101235.09;;;27.19;69.96
59103;BME280;43999;51.660;5.616;2023-05-22T13:20:28;101237.28;;;27.15;71.04
59103;BME280;43999;51.660;5.616;2023-05-22T13:22:55;101240.47;;;27.19;71.38
59103;BME280;43999;51.660;5.616;2023-05-22T13:25:22;101242.56;;;27.09;69.24
59103;BME280;43999;51.660;5.616;2023-05-22T13:27:50;101233.28;;;26.96;69.55